sensor_id;sensor_type;location;lat;lon;timestamp;temperature;humidity
78448;SHT31;67742;51.972;5.682;2023-04-09T13:16:39;21.4;33.0
78448;SHT31;67742;51.972;5.682;2023-04-09T13:19:11;20.9;34.3
78448;SHT31;67742;51.972;5.682;2023-04-09T13:21:40;20.8;35.1
78448;SHT31;67742;51.972;5.682;2023-04-09T13:24:10;20.7;36.1
78448;SHT31;67742;51.972;5.682;2023-04-09T13:26:40;20.7;35.7
78448;SHT31;67742;51.972;5.682;2023-04-09T13:29:10;20.6;35.2
78448;SHT31;67742;51.972;5.682;2023-04-09T13:31:40;20.6;35.6
78448;SHT31;67742;51.972;5.682;2023-04-09T13:34:09;20.5;35.6
78448;SHT31;67742;51.972;5.682;2023-04-09T13:36:38;20.5;36.5
78448;SHT31;67742;51.972;5.682;2023-04-09T13:39:08;20.4;36.3
78448;SHT31;67742;51.972;5.682;2023-04-09T13:41:38;20.4;35.5
78448;SHT31;67742;51.972;5.682;2023-04-09T13:44:09;20.3;36.5
78448;SHT31;67742;51.972;5.682;2023-04-09T13:46:39;20.3;36.3
78448;SHT31;67742;51.972;5.682;2023-04-09T13:49:08;20.2;36.2
78448;SHT31;67742;51.972;5.682;2023-04-09T13:51:39;20.2;35.9
78448;SHT31;67742;51.972;5.682;2023-04-09T13:54:08;20.1;36.6
78448;SHT31;67742;51.972;5.682;2023-04-09T13:56:38;20.1;37.0
78448;SHT31;67742;51.972;5.682;2023-04-09T13:59:10;20.1;37.3
78448;SHT31;67742;51.972;5.682;2023-04-09T14:01:40;20.0;35.4
78448;SHT31;67742;51.972;5.682;2023-04-09T14:04:09;20.0;37.5
78448;SHT31;67742;51.972;5.682;2023-04-09T14:06:39;20.0;37.7
78448;SHT31;67742;51.972;5.682;2023-04-09T14:09:10;19.9;36.7
78448;SHT31;67742;51.972;5.682;2023-04-09T14:11:40;19.9;37.2
78448;SHT31;67742;51.972;5.682;2023-04-09T14:14:09;19.9;36.3
78448;SHT31;67742;51.972;5.682;2023-04-09T14:16:39;19.8;35.9
78448;SHT31;67742;51.972;5.682;2023-04-09T14:19:08;19.8;36.6
78448;SHT31;67742;51.972;5.682;2023-04-09T14:21:38;19.8;37.2
78448;SHT31;67742;51.972;5.682;2023-04-09T14:24:08;19.7;36.9
78448;SHT31;67742;51.972;5.682;2023-04-09T14:26:38;19.7;36.7
78448;SHT31;67742;51.972;5.682;2023-04-09T14:29:09;19.7;36.3
78448;SHT31;67742;51.972;5.682;2023-04-09T14:31:39;19.7;36.0
78448;SHT31;67742;51.972;5.682;2023-04-09T14:34:11;19.6;36.9
78448;SHT31;67742;51.972;5.682;2023-04-09T14:36:40;19.6;36.4
78448;SHT31;67742;51.972;5.682;2023-04-09T14:39:10;19.5;37.4
78448;SHT31;67742;51.972;5.682;2023-04-09T14:41:39;19.5;37.7
78448;SHT31;67742;51.972;5.682;2023-04-09T14:44:09;19.5;37.5
78448;SHT31;67742;51.972;5.682;2023-04-09T14:46:39;19.4;38.4
78448;SHT31;67742;51.972;5.682;2023-04-09T14:49:08;19.4;38.0
78448;SHT31;67742;51.972;5.682;2023-04-09T14:51:38;19.4;38.5
78448;SHT31;67742;51.972;5.682;2023-04-09T14:54:07;19.4;37.6
78448;SHT31;67742;51.972;5.682;2023-04-09T14:56:37;19.4;38.3
78448;SHT31;67742;51.972;5.682;2023-04-09T14:59:07;19.4;36.3
78448;SHT31;67742;51.972;5.682;2023-04-09T15:01:36;19.4;35.6
78448;SHT31;67742;51.972;5.682;2023-04-09T15:04:05;19.4;36.5
78448;SHT31;67742;51.972;5.682;2023-04-09T15:06:35;19.4;36.8
78448;SHT31;67742;51.972;5.682;2023-04-09T15:09:05;19.3;36.7
78448;SHT31;67742;51.972;5.682;2023-04-09T15:11:35;19.3;36.3
78448;SHT31;67742;51.972;5.682;2023-04-09T15:14:04;19.2;36.4
78448;SHT31;67742;51.972;5.682;2023-04-09T15:16:34;19.2;37.5
78448;SHT31;67742;51.972;5.682;2023-04-09T15:19:05;19.2;37.0
78448;SHT31;67742;51.972;5.682;2023-04-09T15:21:34;19.1;37.7
78448;SHT31;67742;51.972;5.682;2023-04-09T15:24:04;19.1;37.7
78448;SHT31;67742;51.972;5.682;2023-04-09T15:26:34;19.0;37.2
78448;SHT31;67742;51.972;5.682;2023-04-09T15:29:06;19.0;36.9
78448;SHT31;67742;51.972;5.682;2023-04-09T15:31:36;18.9;37.5
78448;SHT31;67742;51.972;5.682;2023-04-09T15:34:06;18.9;37.3
78448;SHT31;67742;51.972;5.682;2023-04-09T15:36:36;18.9;37.8
78448;SHT31;67742;51.972;5.682;2023-04-09T15:39:06;18.8;38.2
78448;SHT31;67742;51.972;5.682;2023-04-09T15:41:36;18.8;37.8
78448;SHT31;67742;51.972;5.682;2023-04-09T15:44:08;18.8;38.3
78448;SHT31;67742;51.972;5.682;2023-04-09T15:46:38;18.8;38.8
78448;SHT31;67742;51.972;5.682;2023-04-09T15:49:08;18.7;39.5
78448;SHT31;67742;51.972;5.682;2023-04-09T15:51:40;18.7;39.1
78448;SHT31;67742;51.972;5.682;2023-04-09T15:54:09;18.7;39.2
78448;SHT31;67742;51.972;5.682;2023-04-09T15:56:39;18.7;39.3
78448;SHT31;67742;51.972;5.682;2023-04-09T15:59:09;18.7;39.9
78448;SHT31;67742;51.972;5.682;2023-04-09T16:01:38;18.7;40.1
78448;SHT31;67742;51.972;5.682;2023-04-09T16:04:08;18.7;39.5
78448;SHT31;67742;51.972;5.682;2023-04-09T16:06:38;18.7;39.5
78448;SHT31;67742;51.972;5.682;2023-04-09T16:09:08;18.7;38.9
78448;SHT31;67742;51.972;5.682;2023-04-09T16:11:37;18.7;39.3
78448;SHT31;67742;51.972;5.682;2023-04-09T16:14:07;18.7;38.5
78448;SHT31;67742;51.972;5.682;2023-04-09T16:16:37;18.7;37.5
78448;SHT31;67742;51.972;5.682;2023-04-09T16:19:12;18.6;39.1
78448;SHT31;67742;51.972;5.682;2023-04-09T16:21:42;18.6;37.7
78448;SHT31;67742;51.972;5.682;2023-04-09T16:24:13;18.6;39.0
78448;SHT31;67742;51.972;5.682;2023-04-09T16:26:44;18.6;40.3
78448;SHT31;67742;51.972;5.682;2023-04-09T16:29:14;18.6;41.0
78448;SHT31;67742;51.972;5.682;2023-04-09T16:31:44;18.6;40.1
78448;SHT31;67742;51.972;5.682;2023-04-09T16:34:13;18.5;39.3
78448;SHT31;67742;51.972;5.682;2023-04-09T16:36:43;18.5;38.7
78448;SHT31;67742;51.972;5.682;2023-04-09T16:39:13;18.5;38.9
78448;SHT31;67742;51.972;5.682;2023-04-09T16:41:44;18.5;39.0
78448;SHT31;67742;51.972;5.682;2023-04-09T16:44:13;18.4;40.4
78448;SHT31;67742;51.972;5.682;2023-04-09T16:46:43;18.4;40.5
78448;SHT31;67742;51.972;5.682;2023-04-09T16:49:12;18.4;40.5
78448;SHT31;67742;51.972;5.682;2023-04-09T16:51:42;18.4;40.1
78448;SHT31;67742;51.972;5.682;2023-04-09T16:54:12;18.4;39.9
78448;SHT31;67742;51.972;5.682;2023-04-09T16:56:42;18.3;41.7
78448;SHT31;67742;51.972;5.682;2023-04-09T16:59:12;18.3;39.3
78448;SHT31;67742;51.972;5.682;2023-04-09T17:01:44;18.3;40.0
78448;SHT31;67742;51.972;5.682;2023-04-09T17:04:13;18.3;39.9
78448;SHT31;67742;51.972;5.682;2023-04-09T17:06:43;18.2;38.8
78448;SHT31;67742;51.972;5.682;2023-04-09T17:09:13;18.2;41.1
78448;SHT31;67742;51.972;5.682;2023-04-09T17:11:43;18.2;41.2
78448;SHT31;67742;51.972;5.682;2023-04-09T17:14:12;18.1;41.5
78448;SHT31;67742;51.972;5.682;2023-04-09T17:16:42;18.1;40.0
78448;SHT31;67742;51.972;5.682;2023-04-09T17:19:11;18.1;41.6
78448;SHT31;67742;51.972;5.682;2023-04-09T17:21:41;18.0;42.0
78448;SHT31;67742;51.972;5.682;2023-04-09T17:24:11;18.0;40.4
78448;SHT31;67742;51.972;5.682;2023-04-09T17:26:41;18.0;41.4
78448;SHT31;67742;51.972;5.682;2023-04-09T17:29:11;17.9;41.8
78448;SHT31;67742;51.972;5.682;2023-04-09T17:31:43;17.9;41.9
78448;SHT31;67742;51.972;5.682;2023-04-09T17:34:12;17.9;42.1
78448;SHT31;67742;51.972;5.682;2023-04-09T17:36:42;17.8;42.5
78448;SHT31;67742;51.972;5.682;2023-04-09T17:39:16;17.8;41.2
78448;SHT31;67742;51.972;5.682;2023-04-09T17:41:45;17.7;41.2
78448;SHT31;67742;51.972;5.682;2023-04-09T17:44:14;17.7;40.7
78448;SHT31;67742;51.972;5.682;2023-04-09T17:46:44;17.6;42.0
78448;SHT31;67742;51.972;5.682;2023-04-09T17:49:13;17.6;42.1
78448;SHT31;67742;51.972;5.682;2023-04-09T17:51:43;17.5;41.4
78448;SHT31;67742;51.972;5.682;2023-04-09T17:54:14;17.5;41.5
78448;SHT31;67742;51.972;5.682;2023-04-09T17:56:44;17.4;42.1
78448;SHT31;67742;51.972;5.682;2023-04-09T17:59:14;17.4;42.0
78448;SHT31;67742;51.972;5.682;2023-04-09T18:01:44;17.3;42.5
78448;SHT31;67742;51.972;5.682;2023-04-09T18:04:13;17.3;41.7
78448;SHT31;67742;51.972;5.682;2023-04-09T18:06:42;17.2;42.4
78448;SHT31;67742;51.972;5.682;2023-04-09T18:09:12;17.2;42.5
78448;SHT31;67742;51.972;5.682;2023-04-09T18:11:42;17.1;42.4
78448;SHT31;67742;51.972;5.682;2023-04-09T18:14:14;17.1;42.6
78448;SHT31;67742;51.972;5.682;2023-04-09T18:16:44;17.0;42.8
78448;SHT31;67742;51.972;5.682;2023-04-09T18:19:14;17.0;42.9
78448;SHT31;67742;51.972;5.682;2023-04-09T18:21:43;16.9;42.7
78448;SHT31;67742;51.972;5.682;2023-04-09T18:24:12;16.9;42.7
78448;SHT31;67742;51.972;5.682;2023-04-09T18:26:42;16.8;42.8
78448;SHT31;67742;51.972;5.682;2023-04-09T18:29:12;16.8;42.7
78448;SHT31;67742;51.972;5.682;2023-04-09T18:31:42;16.7;42.7
78448;SHT31;67742;51.972;5.682;2023-04-09T18:34:11;16.7;43.0
78448;SHT31;67742;51.972;5.682;2023-04-09T18:36:41;16.6;43.2
78448;SHT31;67742;51.972;5.682;2023-04-09T18:39:10;16.6;43.6
78448;SHT31;67742;51.972;5.682;2023-04-09T18:41:41;16.5;43.6
78448;SHT31;67742;51.972;5.682;2023-04-09T18:44:11;16.4;43.3
78448;SHT31;67742;51.972;5.682;2023-04-09T18:46:41;16.4;43.3
78448;SHT31;67742;51.972;5.682;2023-04-09T18:49:10;16.3;43.2
78448;SHT31;67742;51.972;5.682;2023-04-09T18:51:40;16.3;42.7
78448;SHT31;67742;51.972;5.682;2023-04-09T18:54:09;16.2;43.3
78448;SHT31;67742;51.972;5.682;2023-04-09T18:56:39;16.2;43.3
78448;SHT31;67742;51.972;5.682;2023-04-09T18:59:08;16.1;43.5
78448;SHT31;67742;51.972;5.682;2023-04-09T19:01:38;16.1;43.3
78448;SHT31;67742;51.972;5.682;2023-04-09T19:04:10;16.0;42.7
78448;SHT31;67742;51.972;5.682;2023-04-09T19:06:40;16.0;43.4
78448;SHT31;67742;51.972;5.682;2023-04-09T19:09:12;15.9;43.5
78448;SHT31;67742;51.972;5.682;2023-04-09T19:11:42;15.9;43.0
78448;SHT31;67742;51.972;5.682;2023-04-09T19:14:11;15.8;44.7
78448;SHT31;67742;51.972;5.682;2023-04-09T19:16:41;15.8;45.0
78448;SHT31;67742;51.972;5.682;2023-04-09T19:19:10;15.7;44.5
78448;SHT31;67742;51.972;5.682;2023-04-09T19:21:42;15.7;44.5
78448;SHT31;67742;51.972;5.682;2023-04-09T19:24:11;15.7;45.1
78448;SHT31;67742;51.972;5.682;2023-04-09T19:26:40;15.6;45.4
78448;SHT31;67742;51.972;5.682;2023-04-09T19:29:10;15.6;45.8
78448;SHT31;67742;51.972;5.682;2023-04-09T19:31:39;15.5;45.8
78448;SHT31;67742;51.972;5.682;2023-04-09T19:34:09;15.5;45.9
78448;SHT31;67742;51.972;5.682;2023-04-09T19:36:39;15.4;45.8
78448;SHT31;67742;51.972;5.682;2023-04-09T19:39:10;15.4;46.2
78448;SHT31;67742;51.972;5.682;2023-04-09T19:41:39;15.3;46.3
78448;SHT31;67742;51.972;5.682;2023-04-09T19:44:09;15.3;46.5
78448;SHT31;67742;51.972;5.682;2023-04-09T19:46:38;15.2;46.8
78448;SHT31;67742;51.972;5.682;2023-04-09T19:49:09;15.2;45.8
78448;SHT31;67742;51.972;5.682;2023-04-09T19:51:39;15.1;47.0
78448;SHT31;67742;51.972;5.682;2023-04-09T19:54:08;15.1;47.0
78448;SHT31;67742;51.972;5.682;2023-04-09T19:56:40;15.0;46.4
78448;SHT31;67742;51.972;5.682;2023-04-09T19:59:09;15.0;47.0
78448;SHT31;67742;51.972;5.682;2023-04-09T20:01:40;14.9;47.6
78448;SHT31;67742;51.972;5.682;2023-04-09T20:04:10;14.9;47.5
78448;SHT31;67742;51.972;5.682;2023-04-09T20:06:41;14.8;47.7
78448;SHT31;67742;51.972;5.682;2023-04-09T20:09:11;14.8;47.8
78448;SHT31;67742;51.972;5.682;2023-04-09T20:11:41;14.7;47.5
78448;SHT31;67742;51.972;5.682;2023-04-09T20:14:10;14.7;48.1
78448;SHT31;67742;51.972;5.682;2023-04-09T20:16:40;14.6;47.9
78448;SHT31;67742;51.972;5.682;2023-04-09T20:19:09;14.6;48.2
78448;SHT31;67742;51.972;5.682;2023-04-09T20:21:39;14.5;48.5
78448;SHT31;67742;51.972;5.682;2023-04-09T20:24:10;14.5;48.7
78448;SHT31;67742;51.972;5.682;2023-04-09T20:26:39;14.4;48.9
78448;SHT31;67742;51.972;5.682;2023-04-09T20:29:08;14.4;48.9
78448;SHT31;67742;51.972;5.682;2023-04-09T20:31:38;14.4;48.7
78448;SHT31;67742;51.972;5.682;2023-04-09T20:34:09;14.3;48.0
78448;SHT31;67742;51.972;5.682;2023-04-09T20:36:39;14.3;48.7
78448;SHT31;67742;51.972;5.682;2023-04-09T20:39:11;14.2;48.2
78448;SHT31;67742;51.972;5.682;2023-04-09T20:41:40;14.2;49.2
78448;SHT31;67742;51.972;5.682;2023-04-09T20:44:10;14.2;49.2
78448;SHT31;67742;51.972;5.682;2023-04-09T20:46:40;14.1;49.1
78448;SHT31;67742;51.972;5.682;2023-04-09T20:49:09;14.1;49.7
78448;SHT31;67742;51.972;5.682;2023-04-09T20:51:41;14.1;49.3
78448;SHT31;67742;51.972;5.682;2023-04-09T20:54:10;14.0;48.6
78448;SHT31;67742;51.972;5.682;2023-04-09T20:56:40;14.0;49.7
78448;SHT31;67742;51.972;5.682;2023-04-09T20:59:09;13.9;49.9
78448;SHT31;67742;51.972;5.682;2023-04-09T21:01:39;13.9;49.3
78448;SHT31;67742;51.972;5.682;2023-04-09T21:04:09;13.9;50.0
78448;SHT31;67742;51.972;5.682;2023-04-09T21:06:40;13.8;49.4
78448;SHT31;67742;51.972;5.682;2023-04-09T21:09:10;13.8;50.0
78448;SHT31;67742;51.972;5.682;2023-04-09T21:11:39;13.8;49.6
78448;SHT31;67742;51.972;5.682;2023-04-09T21:14:09;13.8;50.3
78448;SHT31;67742;51.972;5.682;2023-04-09T21:16:41;13.7;50.3
78448;SHT31;67742;51.972;5.682;2023-04-09T21:19:10;13.7;49.8
78448;SHT31;67742;51.972;5.682;2023-04-09T21:21:41;13.7;48.9
78448;SHT31;67742;51.972;5.682;2023-04-09T21:24:11;13.6;49.7
78448;SHT31;67742;51.972;5.682;2023-04-09T21:26:40;13.6;49.9
78448;SHT31;67742;51.972;5.682;2023-04-09T21:29:10;13.6;49.1
78448;SHT31;67742;51.972;5.682;2023-04-09T21:31:39;13.6;49.0
78448;SHT31;67742;51.972;5.682;2023-04-09T21:34:09;13.5;50.4
78448;SHT31;67742;51.972;5.682;2023-04-09T21:36:38;13.5;49.6
78448;SHT31;67742;51.972;5.682;2023-04-09T21:39:08;13.5;50.8
78448;SHT31;67742;51.972;5.682;2023-04-09T21:41:39;13.4;50.8
78448;SHT31;67742;51.972;5.682;2023-04-09T21:44:08;13.4;49.9
78448;SHT31;67742;51.972;5.682;2023-04-09T21:46:38;13.4;49.7
78448;SHT31;67742;51.972;5.682;2023-04-09T21:49:09;13.4;50.8
78448;SHT31;67742;51.972;5.682;2023-04-09T21:51:39;13.3;50.8
78448;SHT31;67742;51.972;5.682;2023-04-09T21:54:09;13.3;50.6
78448;SHT31;67742;51.972;5.682;2023-04-09T21:56:39;13.3;51.1
78448;SHT31;67742;51.972;5.682;2023-04-09T21:59:08;13.3;50.4
78448;SHT31;67742;51.972;5.682;2023-04-09T22:01:38;13.2;51.2
78448;SHT31;67742;51.972;5.682;2023-04-09T22:04:07;13.2;49.7
78448;SHT31;67742;51.972;5.682;2023-04-09T22:06:38;13.2;50.7
78448;SHT31;67742;51.972;5.682;2023-04-09T22:09:08;13.2;50.4
78448;SHT31;67742;51.972;5.682;2023-04-09T22:11:37;13.1;51.2
78448;SHT31;67742;51.972;5.682;2023-04-09T22:14:09;13.1;50.9
78448;SHT31;67742;51.972;5.682;2023-04-09T22:16:39;13.1;49.5
78448;SHT31;67742;51.972;5.682;2023-04-09T22:19:08;13.1;49.9
78448;SHT31;67742;51.972;5.682;2023-04-09T22:21:40;13.0;50.2
78448;SHT31;67742;51.972;5.682;2023-04-09T22:24:09;13.0;50.9
78448;SHT31;67742;51.972;5.682;2023-04-09T22:26:40;13.0;49.5
78448;SHT31;67742;51.972;5.682;2023-04-09T22:29:13;13.0;50.2
78448;SHT31;67742;51.972;5.682;2023-04-09T22:31:43;12.9;49.7
78448;SHT31;67742;51.972;5.682;2023-04-09T22:34:12;12.9;50.1
78448;SHT31;67742;51.972;5.682;2023-04-09T22:36:42;12.9;51.3
78448;SHT31;67742;51.972;5.682;2023-04-09T22:39:12;12.9;49.6
78448;SHT31;67742;51.972;5.682;2023-04-09T22:41:42;12.9;50.7
78448;SHT31;67742;51.972;5.682;2023-04-09T22:44:12;12.9;51.1
78448;SHT31;67742;51.972;5.682;2023-04-09T22:46:41;12.8;50.6
78448;SHT31;67742;51.972;5.682;2023-04-09T22:49:11;12.8;50.8
78448;SHT31;67742;51.972;5.682;2023-04-09T22:51:40;12.8;50.5
78448;SHT31;67742;51.972;5.682;2023-04-09T22:54:10;12.8;51.3
78448;SHT31;67742;51.972;5.682;2023-04-09T22:56:41;12.8;49.7
78448;SHT31;67742;51.972;5.682;2023-04-09T22:59:11;12.8;50.0
78448;SHT31;67742;51.972;5.682;2023-04-09T23:01:41;12.7;49.8
78448;SHT31;67742;51.972;5.682;2023-04-09T23:04:12;12.7;49.6
78448;SHT31;67742;51.972;5.682;2023-04-09T23:06:46;12.7;49.2
78448;SHT31;67742;51.972;5.682;2023-04-09T23:09:16;12.7;49.6
78448;SHT31;67742;51.972;5.682;2023-04-09T23:11:45;12.7;49.7
78448;SHT31;67742;51.972;5.682;2023-04-09T23:14:17;12.7;50.0
78448;SHT31;67742;51.972;5.682;2023-04-09T23:16:46;12.7;50.4
78448;SHT31;67742;51.972;5.682;2023-04-09T23:19:16;12.7;50.4
78448;SHT31;67742;51.972;5.682;2023-04-09T23:21:45;12.7;49.7
78448;SHT31;67742;51.972;5.682;2023-04-09T23:24:14;12.7;48.8
78448;SHT31;67742;51.972;5.682;2023-04-09T23:26:45;12.7;50.8
78448;SHT31;67742;51.972;5.682;2023-04-09T23:29:15;12.6;49.3
78448;SHT31;67742;51.972;5.682;2023-04-09T23:31:44;12.6;49.8
78448;SHT31;67742;51.972;5.682;2023-04-09T23:34:14;12.6;49.1
78448;SHT31;67742;51.972;5.682;2023-04-09T23:36:43;12.6;49.2
78448;SHT31;67742;51.972;5.682;2023-04-09T23:39:13;12.6;49.7
78448;SHT31;67742;51.972;5.682;2023-04-09T23:41:42;12.6;49.9
78448;SHT31;67742;51.972;5.682;2023-04-09T23:44:12;12.6;50.0
78448;SHT31;67742;51.972;5.682;2023-04-09T23:46:42;12.6;50.1
78448;SHT31;67742;51.972;5.682;2023-04-09T23:49:12;12.6;50.1
78448;SHT31;67742;51.972;5.682;2023-04-09T23:51:42;12.6;50.6
78448;SHT31;67742;51.972;5.682;2023-04-09T23:54:11;12.6;50.5
78448;SHT31;67742;51.972;5.682;2023-04-09T23:56:41;12.6;50.7
78448;SHT31;67742;51.972;5.682;2023-04-09T23:59:10;12.5;50.5
